Beulah, North Dakota
Current Conditions -  °F | °C
As of 4:55 AM on Thursday 23 Oct 2014 (Local Time) from KHZE Reporting Station
Clear Clear  
Wind Chill: 32°   Ceiling: Unl
Heat Index: 32°   Visibility: 10mi
Dew Point: 28°   Wind: 3mph
Humidity: 87%   Direction: 230°SW
Pressure: 29.9"   Gusts: NA
Location:  47.26°N, 101.78°W
Report Text: KHZE 231055Z AUTO 23003KT 10SM CLR 00/M02 A2990 RMK AO2
Loading
Personal Weather Stations






























Interactive Weather Map
Tropical Storm Tracking
New forecast layout! Learn more

10-Day Weather Forecast

Advertisements
Track Severe Weather on mobile